createdAt,value
2024-02-12T00:02:20.466Z,82.80
2024-02-12T00:04:49.014Z,83.00
2024-02-12T00:07:19.526Z,82.87
2024-02-12T00:09:46.514Z,82.96
2024-02-12T00:12:14.343Z,82.82
2024-02-12T00:14:41.253Z,83.15
2024-02-12T00:17:11.032Z,83.25
2024-02-12T00:19:38.908Z,83.57
2024-02-12T00:22:05.762Z,83.43
2024-02-12T00:24:33.625Z,83.18
2024-02-12T00:27:02.291Z,83.44
2024-02-12T00:29:29.464Z,83.56
2024-02-12T00:31:59.569Z,83.16
2024-02-12T00:34:27.744Z,83.09
2024-02-12T00:36:54.458Z,82.84
2024-02-12T00:39:21.370Z,83.32
2024-02-12T00:41:52.037Z,83.28
2024-02-12T00:44:21.746Z,83.39
2024-02-12T00:46:48.551Z,83.39
2024-02-12T00:49:18.967Z,83.21
2024-02-12T00:51:45.815Z,83.10
2024-02-12T00:54:16.050Z,82.87
2024-02-12T00:56:45.926Z,83.07
2024-02-12T00:59:13.210Z,83.10
2024-02-12T01:01:45.188Z,83.20
2024-02-12T01:04:11.895Z,83.38
2024-02-12T01:06:39.949Z,83.49
2024-02-12T01:09:07.160Z,83.22
2024-02-12T01:11:35.664Z,83.20
2024-02-12T01:14:02.403Z,83.61
2024-02-12T01:16:31.209Z,83.13
2024-02-12T01:18:57.961Z,83.22
2024-02-12T01:21:24.654Z,83.80
2024-02-12T01:23:51.368Z,83.42
2024-02-12T01:26:18.105Z,83.14
2024-02-12T01:28:45.164Z,83.36
2024-02-12T01:31:19.175Z,83.14
2024-02-12T01:33:47.894Z,83.06
2024-02-12T01:36:15.218Z,83.11
2024-02-12T01:38:42.148Z,83.33
2024-02-12T01:41:08.802Z,83.70
2024-02-12T01:43:38.141Z,83.82
2024-02-12T01:46:08.079Z,83.46
2024-02-12T01:48:37.141Z,82.89
2024-02-12T01:51:10.711Z,83.44
2024-02-12T01:53:38.837Z,82.93
2024-02-12T01:56:09.804Z,83.27
2024-02-12T01:58:42.091Z,82.70
2024-02-12T02:01:09.265Z,82.69
2024-02-12T02:03:36.265Z,82.72
2024-02-12T02:06:03.149Z,83.25
2024-02-12T02:08:38.279Z,83.04
2024-02-12T02:11:06.348Z,83.41
2024-02-12T02:13:46.024Z,82.88
2024-02-12T02:16:13.289Z,83.02
2024-02-12T02:18:40.300Z,83.01
2024-02-12T02:21:11.439Z,83.16
2024-02-12T02:23:41.480Z,83.40
2024-02-12T02:26:08.482Z,83.31
2024-02-12T02:28:35.659Z,83.33
2024-02-12T02:31:02.354Z,83.25
2024-02-12T02:33:29.189Z,83.66
2024-02-12T02:35:56.053Z,83.05
2024-02-12T02:38:24.306Z,83.09
2024-02-12T02:40:51.257Z,82.89
2024-02-12T02:43:17.906Z,82.81
2024-02-12T02:45:44.550Z,82.40
2024-02-12T02:48:11.239Z,82.61
2024-02-12T02:50:38.113Z,82.19
2024-02-12T02:53:04.952Z,82.65
2024-02-12T02:55:31.601Z,82.65
2024-02-12T02:58:02.991Z,82.33
2024-02-12T03:00:30.557Z,82.40
2024-02-12T03:02:58.493Z,82.22
2024-02-12T03:05:28.721Z,82.90
2024-02-12T03:07:55.864Z,82.89
2024-02-12T03:10:22.584Z,82.31
2024-02-12T03:12:49.666Z,81.89
2024-02-12T03:15:16.906Z,82.36
2024-02-12T03:17:44.835Z,82.19
2024-02-12T03:20:13.072Z,82.17
2024-02-12T03:22:40.935Z,82.10
2024-02-12T03:25:09.528Z,82.22
2024-02-12T03:27:36.607Z,82.04
2024-02-12T03:30:04.066Z,82.24
2024-02-12T03:32:30.828Z,81.92
2024-02-12T03:35:02.530Z,82.09
2024-02-12T03:37:29.225Z,81.92
2024-02-12T03:39:56.028Z,81.82
2024-02-12T03:42:28.643Z,81.99
2024-02-12T03:44:55.704Z,82.19
2024-02-12T03:47:29.333Z,82.25
2024-02-12T03:50:20.991Z,82.18
2024-02-12T03:53:06.298Z,82.32
2024-02-12T03:55:51.655Z,82.28
2024-02-12T03:58:36.889Z,81.98
2024-02-12T04:01:03.593Z,82.15
2024-02-12T04:03:30.395Z,82.37
2024-02-12T04:05:59.245Z,82.98
2024-02-12T04:08:25.994Z,82.46
2024-02-12T04:10:52.690Z,82.44
2024-02-12T04:13:20.512Z,82.31
2024-02-12T04:15:47.193Z,82.78
2024-02-12T04:18:14.059Z,82.74
2024-02-12T04:20:41.269Z,82.13
2024-02-12T04:23:12.311Z,82.12
2024-02-12T04:25:38.960Z,82.20
2024-02-12T04:28:06.291Z,82.57
2024-02-12T04:30:33.004Z,82.39
2024-02-12T04:33:00.798Z,82.07
2024-02-12T04:35:27.653Z,82.56
2024-02-12T04:37:56.432Z,82.45
2024-02-12T04:40:26.393Z,82.54
2024-02-12T04:42:54.020Z,82.12
2024-02-12T04:45:25.363Z,82.20
2024-02-12T04:47:57.948Z,82.68
2024-02-12T04:50:24.823Z,82.58
2024-02-12T04:52:52.044Z,82.37
2024-02-12T04:55:18.820Z,82.15
2024-02-12T04:57:45.694Z,82.28
2024-02-12T05:00:14.112Z,82.04
2024-02-12T05:02:41.871Z,82.50
2024-02-12T05:05:09.783Z,82.37
2024-02-12T05:07:36.558Z,82.50
2024-02-12T05:10:03.472Z,82.58
2024-02-12T05:12:30.757Z,82.74
2024-02-12T05:14:57.763Z,82.72
2024-02-12T05:17:43.346Z,82.79
2024-02-12T05:20:29.153Z,83.31
2024-02-12T05:22:55.938Z,83.49
2024-02-12T05:25:22.607Z,83.27
2024-02-12T05:27:49.267Z,83.38
2024-02-12T05:30:15.957Z,83.45
2024-02-12T05:32:42.937Z,83.42
2024-02-12T05:35:11.199Z,83.09
2024-02-12T05:37:38.049Z,83.59
2024-02-12T05:40:08.843Z,83.61
2024-02-12T05:42:35.600Z,83.42
2024-02-12T05:45:02.335Z,83.45
2024-02-12T05:47:29.236Z,82.90
2024-02-12T05:49:56.362Z,83.16
2024-02-12T05:52:23.159Z,83.32
2024-02-12T05:54:49.880Z,82.86
2024-02-12T05:57:16.580Z,82.66
2024-02-12T05:59:43.343Z,82.74
2024-02-12T06:02:10.057Z,83.20
2024-02-12T06:04:36.796Z,82.56
2024-02-12T06:07:04.827Z,83.18
2024-02-12T06:09:32.310Z,82.76
2024-02-12T06:11:59.138Z,83.15
2024-02-12T06:14:26.167Z,82.52
2024-02-12T06:16:52.896Z,82.95
2024-02-12T06:19:19.796Z,83.02
2024-02-12T06:21:49.222Z,82.85
2024-02-12T06:24:15.979Z,83.29
2024-02-12T06:26:44.134Z,83.26
2024-02-12T06:29:12.400Z,82.65
2024-02-12T06:31:43.490Z,82.59
2024-02-12T06:34:11.882Z,82.76
2024-02-12T06:36:38.645Z,82.54
2024-02-12T06:39:06.320Z,82.29
2024-02-12T06:41:34.372Z,82.39
2024-02-12T06:44:01.508Z,82.52
2024-02-12T06:46:28.194Z,82.61
2024-02-12T06:48:54.963Z,82.39
2024-02-12T06:51:21.684Z,82.55
2024-02-12T06:53:48.375Z,82.48
2024-02-12T06:56:15.072Z,82.64
2024-02-12T06:58:43.434Z,82.63
2024-02-12T07:01:14.062Z,82.65
2024-02-12T07:03:42.720Z,82.73
2024-02-12T07:06:12.677Z,82.30
2024-02-12T07:08:41.884Z,82.37
2024-02-12T07:11:10.006Z,82.04
2024-02-12T07:13:36.705Z,81.53
2024-02-12T07:16:04.085Z,81.50
2024-02-12T07:18:30.861Z,81.82
2024-02-12T07:20:57.773Z,81.68
2024-02-12T07:23:24.455Z,81.40
2024-02-12T07:25:51.172Z,81.15
2024-02-12T07:28:19.357Z,81.33
2024-02-12T07:30:46.627Z,81.57
2024-02-12T07:33:13.419Z,81.29
2024-02-12T07:35:40.274Z,81.45
2024-02-12T07:38:07.237Z,81.92
2024-02-12T07:40:34.789Z,81.53
2024-02-12T07:43:01.784Z,81.19
2024-02-12T07:45:29.148Z,81.17
2024-02-12T07:47:56.532Z,81.25
2024-02-12T07:50:23.370Z,81.05
2024-02-12T07:52:50.018Z,80.81
2024-02-12T07:55:16.686Z,81.17
2024-02-12T07:57:45.645Z,81.09
2024-02-12T08:00:16.269Z,80.55
2024-02-12T08:02:46.494Z,80.96
2024-02-12T08:05:13.763Z,80.74
2024-02-12T08:07:51.950Z,80.75
2024-02-12T08:10:24.598Z,80.86
2024-02-12T08:12:51.309Z,80.66
2024-02-12T08:15:18.370Z,80.37
2024-02-12T08:17:45.053Z,80.35
2024-02-12T08:20:11.941Z,79.55
2024-02-12T08:22:38.631Z,78.46
2024-02-12T08:25:06.371Z,77.78
2024-02-12T08:27:33.621Z,78.24
2024-02-12T08:30:02.142Z,78.08
2024-02-12T08:32:30.032Z,78.14
2024-02-12T08:34:56.915Z,77.96
2024-02-12T08:37:23.983Z,77.52
2024-02-12T08:39:50.850Z,76.49
2024-02-12T08:42:17.642Z,76.28
2024-02-12T08:44:49.038Z,76.50
2024-02-12T08:47:15.824Z,76.78
2024-02-12T08:49:44.274Z,76.74
2024-02-12T08:52:10.905Z,77.35
2024-02-12T08:54:38.735Z,77.60
2024-02-12T08:57:07.297Z,76.58
2024-02-12T08:59:35.631Z,76.59
2024-02-12T09:02:02.515Z,76.53
2024-02-12T09:04:29.238Z,76.59
2024-02-12T09:06:57.069Z,76.02
2024-02-12T09:09:23.840Z,76.04
2024-02-12T09:11:50.516Z,76.23
2024-02-12T09:14:18.357Z,76.45
2024-02-12T09:16:45.501Z,76.48
2024-02-12T09:19:12.458Z,76.52
2024-02-12T09:21:39.647Z,75.71
2024-02-12T09:24:08.683Z,76.10
2024-02-12T09:26:35.660Z,76.05
2024-02-12T09:29:03.060Z,74.87
2024-02-12T09:31:32.687Z,75.71
2024-02-12T09:34:01.031Z,75.92
2024-02-12T09:36:28.138Z,76.01
2024-02-12T09:38:55.014Z,75.61
2024-02-12T09:41:27.437Z,76.01
2024-02-12T09:43:54.237Z,75.77
2024-02-12T09:46:21.126Z,74.79
2024-02-12T09:48:51.363Z,74.06
2024-02-12T09:51:19.083Z,74.03
2024-02-12T09:53:46.104Z,74.50
2024-02-12T09:56:12.955Z,72.76
2024-02-12T09:58:39.757Z,72.49
2024-02-12T10:01:06.729Z,71.57
2024-02-12T10:03:36.508Z,72.16
2024-02-12T10:06:03.592Z,72.52
2024-02-12T10:08:31.910Z,73.18
2024-02-12T10:10:58.670Z,73.08
2024-02-12T10:13:27.607Z,73.51
2024-02-12T10:15:54.664Z,73.79
2024-02-12T10:18:22.103Z,74.07
2024-02-12T10:20:50.289Z,73.03
2024-02-12T10:23:17.713Z,72.27
2024-02-12T10:25:49.067Z,72.48
2024-02-12T10:28:19.539Z,72.53
2024-02-12T10:30:47.369Z,72.44
2024-02-12T10:33:15.058Z,71.07
2024-02-12T10:35:49.921Z,71.91
2024-02-12T10:38:17.178Z,70.81
2024-02-12T10:40:54.632Z,70.35
2024-02-12T10:43:24.599Z,69.83
2024-02-12T10:45:52.960Z,70.19
2024-02-12T10:48:19.665Z,69.88
2024-02-12T10:50:48.563Z,70.05
2024-02-12T10:53:16.913Z,71.23
2024-02-12T10:55:45.162Z,71.23
2024-02-12T10:58:15.290Z,71.63
2024-02-12T11:00:49.476Z,71.99
2024-02-12T11:03:35.560Z,70.33
2024-02-12T11:06:02.471Z,69.92
2024-02-12T11:08:29.297Z,70.32
2024-02-12T11:11:00.773Z,69.31
2024-02-12T11:13:37.737Z,70.06
2024-02-12T11:16:07.958Z,68.88
2024-02-12T11:18:36.008Z,68.34
2024-02-12T11:21:03.065Z,67.60
2024-02-12T11:23:31.816Z,68.59
2024-02-12T11:26:01.852Z,68.58
2024-02-12T11:28:29.593Z,67.67
2024-02-12T11:30:56.350Z,67.55
2024-02-12T11:33:26.209Z,67.27
2024-02-12T11:36:09.533Z,67.47
2024-02-12T11:38:52.168Z,66.37
2024-02-12T11:41:19.427Z,67.33
2024-02-12T11:43:47.981Z,65.98
2024-02-12T11:46:17.173Z,66.49
2024-02-12T11:48:44.234Z,66.85
2024-02-12T11:51:11.062Z,65.58
2024-02-12T11:53:40.946Z,65.36
2024-02-12T11:56:08.017Z,66.60
2024-02-12T11:58:34.824Z,66.42
2024-02-12T12:01:01.844Z,67.59
2024-02-12T12:03:28.598Z,68.19
2024-02-12T12:05:56.217Z,67.77
2024-02-12T12:08:28.981Z,66.40
2024-02-12T12:11:04.360Z,66.68
2024-02-12T12:13:31.458Z,66.86
2024-02-12T12:15:58.577Z,67.59
2024-02-12T12:18:26.252Z,67.16
2024-02-12T12:20:56.327Z,67.28
2024-02-12T12:23:23.255Z,66.91
2024-02-12T12:25:53.718Z,67.31
2024-02-12T12:28:21.251Z,67.96
2024-02-12T12:30:47.949Z,68.17
2024-02-12T12:33:14.919Z,67.39
2024-02-12T12:35:41.849Z,68.36
2024-02-12T12:38:13.266Z,68.84
2024-02-12T12:40:40.052Z,68.81
2024-02-12T12:43:12.028Z,69.13
2024-02-12T12:45:39.902Z,69.35
2024-02-12T12:48:06.946Z,68.59
2024-02-12T12:50:34.035Z,68.32
2024-02-12T12:53:00.767Z,68.21
2024-02-12T12:55:27.442Z,68.32
2024-02-12T12:57:54.555Z,67.42
2024-02-12T13:00:27.415Z,67.98
2024-02-12T13:02:54.424Z,68.08
2024-02-12T13:05:22.428Z,68.17
2024-02-12T13:08:16.643Z,67.78
2024-02-12T13:13:15.206Z,69.23
2024-02-12T13:15:44.562Z,69.06
2024-02-12T13:18:19.398Z,68.48
2024-02-12T13:20:48.615Z,68.71
2024-02-12T13:23:16.144Z,69.31
2024-02-12T13:25:42.831Z,69.01
2024-02-12T13:28:13.137Z,69.35
2024-02-12T13:30:40.089Z,69.31
2024-02-12T13:33:08.206Z,68.46
2024-02-12T13:35:38.851Z,68.29
2024-02-12T13:38:05.981Z,68.14
2024-02-12T13:40:34.101Z,68.68
2024-02-12T13:43:05.903Z,68.52
2024-02-12T13:45:33.797Z,68.57
2024-02-12T13:48:01.551Z,68.76
2024-02-12T13:50:28.613Z,68.58
2024-02-12T13:52:55.327Z,68.68
2024-02-12T13:55:22.259Z,69.40
2024-02-12T13:57:51.710Z,68.79
2024-02-12T14:00:43.746Z,68.11
2024-02-12T14:03:10.115Z,67.31
2024-02-12T14:05:37.132Z,66.17
2024-02-12T14:08:05.757Z,66.76
2024-02-12T14:10:32.618Z,67.64
2024-02-12T14:12:59.489Z,66.88
2024-02-12T14:16:03.162Z,67.40
2024-02-12T14:18:18.688Z,67.62
2024-02-12T14:20:45.988Z,67.32
2024-02-12T14:23:12.788Z,67.21
2024-02-12T14:25:41.608Z,67.88
2024-02-12T14:28:10.972Z,67.21
2024-02-12T14:30:37.961Z,67.15
2024-02-12T14:33:06.608Z,67.88
2024-02-12T14:35:40.502Z,68.37
2024-02-12T14:38:07.507Z,68.64
2024-02-12T14:40:34.176Z,68.96
2024-02-12T14:43:00.806Z,68.96
2024-02-12T14:45:31.492Z,68.83
2024-02-12T14:48:06.441Z,68.74
2024-02-12T14:50:34.431Z,68.38
2024-02-12T14:53:01.849Z,68.15
2024-02-12T14:55:28.657Z,68.29
2024-02-12T14:57:55.373Z,68.56
2024-02-12T15:00:25.503Z,68.81
2024-02-12T15:02:53.338Z,68.72
2024-02-12T15:05:20.152Z,69.39
2024-02-12T15:07:47.870Z,69.13
2024-02-12T15:10:22.629Z,69.28
2024-02-12T15:12:49.641Z,69.43
2024-02-12T15:15:22.265Z,69.51
2024-02-12T15:17:53.601Z,69.67
2024-02-12T15:20:22.744Z,70.47
2024-02-12T15:22:51.272Z,70.46
2024-02-12T15:25:20.784Z,70.42
2024-02-12T15:27:48.292Z,70.77
2024-02-12T15:30:15.956Z,70.51
2024-02-12T15:32:43.273Z,70.37
2024-02-12T15:35:16.198Z,71.26
2024-02-12T15:37:46.978Z,71.05
2024-02-12T15:40:18.692Z,70.78
2024-02-12T15:42:47.027Z,70.76
2024-02-12T15:45:13.783Z,70.57
2024-02-12T15:47:46.638Z,70.45
2024-02-12T15:50:13.638Z,70.38
2024-02-12T15:52:43.601Z,70.53
2024-02-12T15:55:12.177Z,70.55
2024-02-12T15:57:39.522Z,71.01
2024-02-12T16:00:15.412Z,71.49
2024-02-12T16:02:45.961Z,71.81
2024-02-12T16:05:51.137Z,71.67
2024-02-12T16:08:18.753Z,71.53
2024-02-12T16:10:45.489Z,71.95
2024-02-12T16:13:13.360Z,72.54
2024-02-12T16:15:40.860Z,71.84
2024-02-12T16:18:09.212Z,72.13
2024-02-12T16:20:36.523Z,72.23
2024-02-12T16:23:03.766Z,72.14
2024-02-12T16:25:30.974Z,72.75
2024-02-12T16:28:01.961Z,72.53
2024-02-12T16:30:28.610Z,72.73
2024-02-12T16:32:55.924Z,72.41
2024-02-12T16:35:22.884Z,72.28
2024-02-12T16:37:49.584Z,72.55
2024-02-12T16:40:16.285Z,72.88
2024-02-12T16:42:43.618Z,72.90
2024-02-12T16:45:10.777Z,73.09
2024-02-12T16:47:39.973Z,72.90
2024-02-12T16:50:08.350Z,73.31
2024-02-12T16:52:35.305Z,73.50
2024-02-12T16:55:02.141Z,73.24
2024-02-12T16:57:29.536Z,73.28
2024-02-12T16:59:56.370Z,73.71
2024-02-12T17:02:23.131Z,73.28
2024-02-12T17:04:49.945Z,73.66
2024-02-12T17:07:19.527Z,73.58
2024-02-12T17:09:48.079Z,73.15
2024-02-12T17:12:14.779Z,73.51
2024-02-12T17:14:48.522Z,73.78
2024-02-12T17:17:17.359Z,73.47
2024-02-12T17:19:45.117Z,73.38
2024-02-12T17:22:12.649Z,73.79
2024-02-12T17:24:39.309Z,74.01
2024-02-12T17:27:05.991Z,74.40
2024-02-12T17:29:33.396Z,74.19
2024-02-12T17:32:02.315Z,74.53
2024-02-12T17:34:49.338Z,74.31
2024-02-12T17:37:16.598Z,74.46
2024-02-12T17:39:45.654Z,74.67
2024-02-12T17:42:17.044Z,74.48
2024-02-12T17:44:44.617Z,74.46
2024-02-12T17:47:11.283Z,74.32
2024-02-12T17:49:39.307Z,74.26
2024-02-12T17:52:07.974Z,74.13
2024-02-12T17:54:34.740Z,74.02
2024-02-12T17:57:01.618Z,74.25
2024-02-12T17:59:28.776Z,74.29
2024-02-12T18:01:55.392Z,74.51
2024-02-12T18:04:22.133Z,74.64
2024-02-12T18:06:49.258Z,74.97
2024-02-12T18:09:16.055Z,75.28
2024-02-12T18:11:42.747Z,75.08
2024-02-12T18:14:11.339Z,75.39
2024-02-12T18:16:38.103Z,75.75
2024-02-12T18:19:05.352Z,76.10
2024-02-12T18:21:32.078Z,75.63
2024-02-12T18:23:58.799Z,75.84
2024-02-12T18:26:26.389Z,76.21
2024-02-12T18:28:53.308Z,76.16
2024-02-12T18:31:20.671Z,76.36
2024-02-12T18:33:49.537Z,75.90
2024-02-12T18:36:16.454Z,76.25
2024-02-12T18:38:43.249Z,76.03
2024-02-12T18:41:13.535Z,76.46
2024-02-12T18:43:40.227Z,76.33
2024-02-12T18:46:07.504Z,76.38
2024-02-12T18:48:34.349Z,76.30
2024-02-12T18:51:01.526Z,76.58
2024-02-12T18:53:28.415Z,76.63
2024-02-12T18:55:55.544Z,76.28
2024-02-12T18:58:22.648Z,76.46
2024-02-12T19:00:49.361Z,76.52
2024-02-12T19:03:18.800Z,76.28
2024-02-12T19:05:47.177Z,76.44
2024-02-12T19:08:17.449Z,76.69
2024-02-12T19:10:44.417Z,76.99
2024-02-12T19:13:14.025Z,76.94
2024-02-12T19:15:43.533Z,76.75
2024-02-12T19:18:10.475Z,76.86
2024-02-12T19:20:37.322Z,76.91
2024-02-12T19:23:08.376Z,76.52
2024-02-12T19:25:38.408Z,76.77
2024-02-12T19:28:10.792Z,76.71
2024-02-12T19:30:38.168Z,76.72
2024-02-12T19:33:07.804Z,76.43
2024-02-12T19:35:34.670Z,76.52
2024-02-12T19:38:01.502Z,76.45
2024-02-12T19:40:33.483Z,76.85
2024-02-12T19:43:00.827Z,76.98
2024-02-12T19:45:27.666Z,77.13
2024-02-12T19:47:54.906Z,76.87
2024-02-12T19:50:25.133Z,77.17
2024-02-12T19:52:55.182Z,77.33
2024-02-12T19:55:21.926Z,77.33
2024-02-12T19:57:49.482Z,77.16
2024-02-12T20:00:18.221Z,77.38
2024-02-12T20:02:45.866Z,77.13
2024-02-12T20:05:12.895Z,77.25
2024-02-12T20:07:39.797Z,77.15
2024-02-12T20:10:11.501Z,77.64
2024-02-12T20:12:38.614Z,77.81
2024-02-12T20:15:08.859Z,78.22
2024-02-12T20:17:35.659Z,78.18
2024-02-12T20:20:06.537Z,78.08
2024-02-12T20:22:33.977Z,77.39
2024-02-12T20:25:00.677Z,77.83
2024-02-12T20:27:27.653Z,77.24
2024-02-12T20:29:54.383Z,77.41
2024-02-12T20:32:22.880Z,78.05
2024-02-12T20:34:49.783Z,77.92
2024-02-12T20:37:17.373Z,78.33
2024-02-12T20:39:48.046Z,78.20
2024-02-12T20:42:14.963Z,78.25
2024-02-12T20:44:41.777Z,78.26
2024-02-12T20:47:08.830Z,78.38
2024-02-12T20:49:37.160Z,78.01
2024-02-12T20:52:05.206Z,78.63
2024-02-12T20:54:33.818Z,78.11
2024-02-12T20:57:01.210Z,78.43
2024-02-12T20:59:27.915Z,78.28
2024-02-12T21:01:54.700Z,78.03
2024-02-12T21:04:21.528Z,77.92
2024-02-12T21:06:48.342Z,78.33
2024-02-12T21:09:15.057Z,78.25
2024-02-12T21:11:44.075Z,78.37
2024-02-12T21:14:14.313Z,78.13
2024-02-12T21:16:41.509Z,78.50
2024-02-12T21:19:08.312Z,78.59
2024-02-12T21:21:45.480Z,78.38
2024-02-12T21:24:13.314Z,78.47
2024-02-12T21:26:43.779Z,78.41
2024-02-12T21:29:11.794Z,78.64
2024-02-12T21:31:41.079Z,78.32
2024-02-12T21:34:14.736Z,78.61
2024-02-12T21:36:41.742Z,78.86
2024-02-12T21:39:13.178Z,78.45
2024-02-12T21:41:52.145Z,78.94
2024-02-12T21:44:20.284Z,78.87
2024-02-12T21:46:47.367Z,79.11
2024-02-12T21:49:14.399Z,78.47
2024-02-12T21:51:41.381Z,79.02
2024-02-12T21:54:08.227Z,78.21
2024-02-12T21:56:35.227Z,78.35
2024-02-12T21:59:02.613Z,78.06
2024-02-12T22:01:30.764Z,77.49
2024-02-12T22:03:58.033Z,77.48
2024-02-12T22:06:25.384Z,77.35
2024-02-12T22:08:52.253Z,77.70
2024-02-12T22:11:19.069Z,78.09
2024-02-12T22:13:48.552Z,77.86
2024-02-12T22:16:15.320Z,78.24
2024-02-12T22:18:42.138Z,78.69
2024-02-12T22:21:09.696Z,78.53
2024-02-12T22:23:37.992Z,78.75
2024-02-12T22:26:06.016Z,79.19
2024-02-12T22:28:33.559Z,79.21
2024-02-12T22:31:00.424Z,79.09
2024-02-12T22:33:27.453Z,79.71
2024-02-12T22:35:55.098Z,79.21
2024-02-12T22:38:22.724Z,80.09
2024-02-12T22:40:49.593Z,79.58
2024-02-12T22:43:16.298Z,80.26
2024-02-12T22:45:43.624Z,80.08
2024-02-12T22:48:10.886Z,80.39
2024-02-12T22:50:41.055Z,80.33
2024-02-12T22:53:11.827Z,80.04
2024-02-12T22:55:39.618Z,80.84
2024-02-12T22:58:09.653Z,80.60
2024-02-12T23:00:42.409Z,80.29
2024-02-12T23:03:09.245Z,80.14
2024-02-12T23:05:36.021Z,80.25
2024-02-12T23:08:02.810Z,80.44
2024-02-12T23:10:30.288Z,80.41
2024-02-12T23:12:57.006Z,80.02
2024-02-12T23:15:23.811Z,80.40
2024-02-12T23:17:51.875Z,80.09
2024-02-12T23:20:19.462Z,80.13
2024-02-12T23:22:49.147Z,80.25
2024-02-12T23:25:15.761Z,80.30
2024-02-12T23:27:42.419Z,80.34
2024-02-12T23:30:10.030Z,80.63
2024-02-12T23:32:36.986Z,80.26
2024-02-12T23:35:06.509Z,80.50
2024-02-12T23:37:38.906Z,80.35
2024-02-12T23:40:10.841Z,80.26
2024-02-12T23:42:41.825Z,80.32
2024-02-12T23:45:11.919Z,80.33
2024-02-12T23:47:39.415Z,80.04
2024-02-12T23:50:09.600Z,79.88
2024-02-12T23:52:36.508Z,79.73
2024-02-12T23:55:03.274Z,80.11
2024-02-12T23:57:30.020Z,79.80
2024-02-12T23:59:56.830Z,79.87
